Galva, Illinois
Current Conditions -  °F | °C
As of 5:55 AM on Thursday 23 Oct 2014 (Local Time) from KGBG Reporting Station
Haze Haze  
Wind Chill: 38°   Ceiling: Unl
Heat Index: 41°   Visibility: 4mi
Dew Point: 37°   Wind: 5mph
Humidity: 85%   Direction: 130°SE
Pressure: 30.17"   Gusts: NA
Location:  41.17°N, 90.04°W
Report Text: KGBG 231055Z AUTO 13004KT 4SM HZ CLR 05/03 A3017 RMK AO2 T00520028
Loading
Personal Weather Stations






























Interactive Weather Map
Tropical Storm Tracking
New forecast layout! Learn more

10-Day Weather Forecast

Advertisements
Track Severe Weather on mobile